Record high temperature 44.9°C Record low temperature -0.3°C Record high gust 85.1 km/h Record high average 77.7 km/h Record daily rain 383.8 mm Record low windchill -4.5°C Record high barometer 1043.6 hPa Record low barometer 978.0 hPa
Daily high pressure 1017.3 mb Daily low pressure 1015.8 mb Daily low windchill 24.8°C Daily high heat index 33.7°C Daily high gust speed 14.8 kmh N Daily high average speed 9.4 kmh NE
Estación de MeteoMurcia.com -------- Murcia-Puente Tocinos
Ultima grabación a: 11:40 Data: 17 August 2017, time of next update: 11:50
Tiempo actualmostly clear Temperatura actual30.0°C (86.0°F) (Indice de Calor33.2°C ), Temperatura aparente 32.9°C
Temperatura máxima (desde medianoche)30.1°C at: 11:34 Temperatura mínima (desde medianoche)24.8°C at: 03:06
Velocidad media del viento (diez minutos)4.1 kmh (2.2 kts) Dirección del viento (diez minutos)NNW (339°)
Indice de Calor33.2°C ráfagas maxima (última hora)11.1 kmh (6.0 kts) at: 10:43
ráfagas maxima (desde medianoche)14.8 kmh (8.0 kts) at: 01:57 Maximo media de un minuto (desde medianoche)9.4 kmh (5.1 kts) at: 02:07
Lluvia (última hora)0.0 mm Lluvia (desde medianoche)0.0 mm (0.00 in.)---
Lluvia Este mes 0.0 mm (0.00 in.) Lluvia Hasta la fecha este año136.9 mm (5.39 in.)
Lluvia máxima por minuto (última hora)0.0 mm/min Lluvia maxima por hora (últimas 6 horas)0.0 mm/hora
Lluvia de ayer 0.0 mm Punto de rocío 21.9°C (Wet Bulb :24.5°C )
Humedad 62 %, Humidex 39.3°C Barómetro corregido a msl1017.2 mb
cambio de presión0.1 mb (última hora) Tendencia (últimas 1 hora)ESTACIONARIO
cambio de presión (últimas 12 horas)+1.2 mb cambio de presión (últimas 6 horas)+1.3 mb
Current Temp. Interna 32.3°C
Current Hum. Interna 47%


Última imagen cámara web


Weather report/warning/Metars

Alicante / El Altet, Spain (LEAL) 38-17N 000-33W 31M
Aug 17, 2017 - 05:00 AM EDT / 2017.08.17 0900 UTC
Wind: Variable at 5 MPH (4 KT):0
Visibility: greater than 7 mile(s):0
Sky conditions: mostly clear
Temperature: 86 F (30 C)
Heat index: 93.4 F (34.1 C):1
Dew Point: 73 F (23 C)
Relative Humidity: 66%
Pressure (altimeter): 30.09 in. Hg (1019 hPa)
ob: LEAL 170900Z VRB04KT 9999 FEW012 30/23 Q1019 NOSIG
cycle: 9
Murcia / San Javier, Spain (LELC) 37-47N 000-48W 3M
Aug 17, 2017 - 05:00 AM EDT / 2017.08.17 0900 UTC
Wind: Variable at 2 MPH (2 KT):0
Visibility: greater than 7 mile(s):0
Sky conditions: partly cloudy
Temperature: 82 F (28 C)
Dew Point: 73 F (23 C)
Relative Humidity: 74%
Pressure (altimeter): 30.09 in. Hg (1019 hPa)
ob: LELC 170900Z VRB02KT 9999 SCT012 28/23 Q1019 NOSIG
cycle: 9
Murcia / Alcantarilla, Spain (LERI) 37-57N 001-14W 75M
Aug 17, 2017 - 05:00 AM EDT / 2017.08.17 0900 UTC
Wind: from the SSW (210 degrees) at 2 MPH (2 KT):0
Visibility: greater than 7 mile(s):0
Sky conditions: mostly clear
Temperature: 84 F (29 C)
Dew Point: 69 F (21 C)
Relative Humidity: 62%
Pressure (altimeter): 30.09 in. Hg (1019 hPa)
ob: LERI 170900Z 21002KT 9999 FEW025 29/21 Q1019 NOSIG
cycle: 9
Gerona / Costa Brava, Spain (LEGE) 41-54N 002-46E 129M
Aug 17, 2017 - 05:00 AM EDT / 2017.08.17 0900 UTC
Wind: Calm:0
Visibility: greater than 7 mile(s):0
Temperature: 82 F (28 C)
Dew Point: 62 F (17 C)
Relative Humidity: 51%
Pressure (altimeter): 30.09 in. Hg (1019 hPa)
ob: LEGE 170900Z 00000KT CAVOK 28/17 Q1019
cycle: 9
Madri-Colmenar, Spain (LECV) 40-39N 003-44W
Aug 17, 2017 - 05:00 AM EDT / 2017.08.17 0900 UTC
Wind: Variable at 2 MPH (2 KT):0
Visibility: greater than 7 mile(s):0
Temperature: 80 F (27 C)
Dew Point: 51 F (11 C)
Relative Humidity: 36%
Pressure (altimeter): 30.21 in. Hg (1023 hPa)
ob: LECV 170900Z VRB02KT CAVOK 27/11 Q1023
cycle: 9
Asturias / Aviles, Spain (LEAS) 43-33N 006-02W 130M
Aug 17, 2017 - 05:00 AM EDT / 2017.08.17 0900 UTC
Wind: from the SW (220 degrees) at 3 MPH (3 KT) (direction variable):0
Visibility: greater than 7 mile(s):0
Sky conditions: mostly cloudy
Temperature: 68 F (20 C)
Dew Point: 60 F (16 C)
Relative Humidity: 77%
Pressure (altimeter): 30.18 in. Hg (1022 hPa)
ob: LEAS 170900Z 22003KT 190V250 9999 BKN023 20/16 Q1022 NOSIG
cycle: 9
Almeria / Aeropuerto, Spain (LEAM) 36-51N 002-23W 21M
Aug 17, 2017 - 05:00 AM EDT / 2017.08.17 0900 UTC
Wind: from the E (090 degrees) at 8 MPH (7 KT) (direction variable):0
Visibility: greater than 7 mile(s):0
Sky conditions: mostly clear
Temperature: 86 F (30 C)
Heat index: 91.8 F (33.2 C):1
Dew Point: 71 F (22 C)
Relative Humidity: 62%
Pressure (altimeter): 30.06 in. Hg (1018 hPa)
ob: LEAM 170900Z 09007KT 050V140 9999 FEW020 30/22 Q1018
cycle: 9
Pamplona / Noain, Spain (LEPP) 42-46N 001-38W 453M
Aug 17, 2017 - 05:00 AM EDT / 2017.08.17 0900 UTC
Wind: Variable at 1 MPH (1 KT):0
Visibility: greater than 7 mile(s):0
Temperature: 71 F (22 C)
Dew Point: 48 F (9 C)
Relative Humidity: 43%
Pressure (altimeter): 30.21 in. Hg (1023 hPa)
ob: LEPP 170900Z VRB01KT CAVOK 22/09 Q1023
cycle: 9
Badajoz / Talavera La Real, Spain (LEBZ) 38-53N 006-49W 192M
Aug 17, 2017 - 05:00 AM EDT / 2017.08.17 0900 UTC
Wind: from the W (260 degrees) at 3 MPH (3 KT) (direction variable):0
Visibility: 3 mile(s):0
Weather: smoke
Temperature: 77 F (25 C)
Dew Point: 59 F (15 C)
Relative Humidity: 53%
Pressure (altimeter): 30.09 in. Hg (1019 hPa)
ob: LEBZ 170900Z 26003KT 230V310 5000 FU NSC 25/15 Q1019
cycle: 9
Albacete / Los Llanos, Spain (LEAB) 38-57N 001-51W 704M
Aug 17, 2017 - 05:00 AM EDT / 2017.08.17 0900 UTC
Wind: from the SSE (150 degrees) at 9 MPH (8 KT) (direction variable):0
Visibility: 5 mile(s):0
Sky conditions: mostly clear
Temperature: 77 F (25 C)
Dew Point: 68 F (20 C)
Relative Humidity: 73%
Pressure (altimeter): 30.18 in. Hg (1022 hPa)
ob: LEAB 170900Z 15008KT 120V190 9000 FEW014 25/20 Q1022 NOSIG
cycle: 9



La informacion se graba a intervalos de 2 minutos, pero hay info grabada cada minuto. Optimizado para 800*600 y Color verdadero. Use el boton de

Use the RECARGA en su navegador para recojer la ulima info.

Clicar aquí para regarga diaria de medias/extremas del mes














Created by "Weather Display" software version 10.37S at this start time/date 14:37:06 15/08/2017

La estación de MeteoMurcia.com, publica sus datos en los siguientes proyectos:

Meteoclimatic www.awekas.at

W3Counter
Web Analytics